createdAt,value
2024-05-09T00:00:58.454Z,100924.30
2024-05-09T00:03:47.592Z,100933.34
2024-05-09T00:06:19.551Z,100919.59
2024-05-09T00:08:49.783Z,100925.96
2024-05-09T00:11:20.392Z,100914.66
2024-05-09T00:13:52.846Z,100926.38
2024-05-09T00:16:23.262Z,100921.22
2024-05-09T00:18:54.315Z,100920.61
2024-05-09T00:21:24.983Z,100917.12
2024-05-09T00:23:57.342Z,100904.98
2024-05-09T00:26:27.608Z,100905.40
2024-05-09T00:28:57.974Z,100904.78
2024-05-09T00:31:31.102Z,100894.09
2024-05-09T00:34:06.074Z,100899.66
2024-05-09T00:36:38.992Z,100893.48
2024-05-09T00:39:09.434Z,100901.91
2024-05-09T00:42:16.302Z,100905.83
2024-05-09T00:44:47.782Z,100905.41
2024-05-09T00:47:19.524Z,100907.45
2024-05-09T00:49:51.202Z,100915.70
2024-05-09T00:52:26.495Z,100910.35
2024-05-09T00:54:58.436Z,100907.87
2024-05-09T00:57:29.836Z,100911.56
2024-05-09T01:00:26.879Z,100910.77
2024-05-09T01:03:06.307Z,100914.65
2024-05-09T01:05:39.788Z,100912.39
2024-05-09T01:08:12.829Z,100906.42
2024-05-09T01:10:48.900Z,100912.80
2024-05-09T01:13:19.718Z,100907.45
2024-05-09T01:15:52.491Z,100911.16
2024-05-09T01:18:23.674Z,100908.70
2024-05-09T01:20:56.864Z,100906.84
2024-05-09T01:23:27.321Z,100909.73
2024-05-09T01:26:00.760Z,100901.28
2024-05-09T01:28:32.059Z,100901.28
2024-05-09T01:31:04.572Z,100901.51
2024-05-09T01:33:39.409Z,100893.69
2024-05-09T01:36:14.560Z,100894.71
2024-05-09T01:38:45.232Z,100899.02
2024-05-09T01:41:16.130Z,100898.41
2024-05-09T01:43:47.320Z,100901.08
2024-05-09T01:46:20.302Z,100894.31
2024-05-09T01:48:50.774Z,100898.81
2024-05-09T01:51:21.402Z,100902.52
2024-05-09T01:53:54.221Z,100901.70
2024-05-09T01:56:27.921Z,100894.72
2024-05-09T01:58:59.272Z,100898.41
2024-05-09T02:01:29.980Z,100897.58
2024-05-09T02:04:21.400Z,100907.23
2024-05-09T02:06:51.961Z,100908.07
2024-05-09T02:09:22.988Z,100904.56
2024-05-09T02:11:57.214Z,100907.05
2024-05-09T02:14:31.489Z,100906.20
2024-05-09T02:17:02.226Z,100906.20
2024-05-09T02:19:33.000Z,100911.55
2024-05-09T02:22:04.926Z,100910.73
2024-05-09T02:24:35.953Z,100914.22
2024-05-09T02:27:07.197Z,100912.58
2024-05-09T02:29:38.084Z,100910.93
2024-05-09T02:32:10.014Z,100913.59
2024-05-09T02:34:41.405Z,100917.91
2024-05-09T02:37:12.213Z,100914.44
2024-05-09T02:39:42.922Z,100919.97
2024-05-09T02:42:15.795Z,100914.00
2024-05-09T02:44:46.282Z,100916.02
2024-05-09T02:47:19.566Z,100916.24
2024-05-09T02:49:50.488Z,100903.70
2024-05-09T02:52:25.868Z,100918.91
2024-05-09T02:54:59.266Z,100918.08
2024-05-09T02:57:29.478Z,100923.81
2024-05-09T03:00:02.636Z,100923.02
2024-05-09T03:02:35.164Z,100920.93
2024-05-09T03:05:06.761Z,100923.81
2024-05-09T03:07:37.164Z,100920.12
2024-05-09T03:10:22.352Z,100919.28
2024-05-09T03:13:01.730Z,100921.15
2024-05-09T03:15:43.909Z,100913.14
2024-05-09T03:18:17.233Z,100915.19
2024-05-09T03:20:52.773Z,100922.98
2024-05-09T03:23:44.925Z,100931.83
2024-05-09T03:26:19.081Z,100936.95
2024-05-09T03:28:53.659Z,100939.62
2024-05-09T03:31:24.648Z,100942.29
2024-05-09T03:33:55.624Z,100945.80
2024-05-09T03:36:26.504Z,100947.62
2024-05-09T03:38:57.238Z,100947.62
2024-05-09T03:41:27.821Z,100952.97
2024-05-09T03:43:58.197Z,100942.29
2024-05-09T03:46:30.083Z,100947.44
2024-05-09T03:49:04.449Z,100962.63
2024-05-09T03:51:40.974Z,100966.13
2024-05-09T03:54:12.400Z,100968.80
2024-05-09T03:56:42.880Z,100968.98
2024-05-09T03:59:13.233Z,100962.84
2024-05-09T04:01:43.684Z,100968.98
2024-05-09T04:04:21.362Z,100967.96
2024-05-09T04:06:52.305Z,100975.97
2024-05-09T04:09:22.563Z,100974.72
2024-05-09T04:11:52.962Z,100972.89
2024-05-09T04:14:23.751Z,100978.02
2024-05-09T04:16:54.511Z,100983.36
2024-05-09T04:19:25.045Z,100988.69
2024-05-09T04:21:55.323Z,100990.55
2024-05-09T04:24:25.800Z,100992.39
2024-05-09T04:26:56.563Z,100997.94
2024-05-09T04:29:26.948Z,100991.77
2024-05-09T04:31:57.593Z,101002.44
2024-05-09T04:34:28.747Z,101001.63
2024-05-09T04:36:59.423Z,101000.80
2024-05-09T04:39:30.772Z,101006.32
2024-05-09T04:42:01.220Z,101000.17
2024-05-09T04:44:32.646Z,101003.86
2024-05-09T04:47:02.863Z,101000.57
2024-05-09T04:49:33.028Z,101011.25
2024-05-09T04:52:03.752Z,101014.73
2024-05-09T04:54:36.562Z,101018.86
2024-05-09T04:57:08.231Z,101014.54
2024-05-09T04:59:38.820Z,101022.55
2024-05-09T05:02:09.318Z,101012.89
2024-05-09T05:04:40.165Z,101021.30
2024-05-09T05:07:10.298Z,101032.78
2024-05-09T05:09:40.558Z,101035.66
2024-05-09T05:12:33.572Z,101040.37
2024-05-09T05:15:05.945Z,101041.58
2024-05-09T05:17:36.746Z,101042.42
2024-05-09T05:20:12.705Z,101051.05
2024-05-09T05:22:47.416Z,101040.56
2024-05-09T05:25:17.730Z,101043.23
2024-05-09T05:27:48.002Z,101049.41
2024-05-09T05:30:24.941Z,101045.72
2024-05-09T05:33:01.664Z,101042.03
2024-05-09T05:35:32.737Z,101041.81
2024-05-09T05:38:03.508Z,101037.94
2024-05-09T05:40:38.260Z,101048.61
2024-05-09T05:43:16.781Z,101046.75
2024-05-09T05:45:47.003Z,101044.71
2024-05-09T05:48:18.114Z,101050.67
2024-05-09T05:50:49.233Z,101047.64
2024-05-09T05:53:19.683Z,101056.27
2024-05-09T05:55:49.938Z,101049.70
2024-05-09T05:58:21.124Z,101060.19
2024-05-09T06:00:53.236Z,101062.65
2024-05-09T06:03:23.747Z,101057.13
2024-05-09T06:05:53.997Z,101063.09
2024-05-09T06:08:27.100Z,101057.53
2024-05-09T06:10:59.822Z,101059.40
2024-05-09T06:13:30.364Z,101068.88
2024-05-09T06:16:02.011Z,101073.41
2024-05-09T06:18:33.950Z,101072.56
2024-05-09T06:21:05.588Z,101070.52
2024-05-09T06:23:35.853Z,101073.19
2024-05-09T06:26:07.351Z,101071.36
2024-05-09T06:28:38.246Z,101071.36
2024-05-09T06:31:08.655Z,101075.23
2024-05-09T06:33:39.193Z,101069.23
2024-05-09T06:36:10.470Z,101068.43
2024-05-09T06:38:42.186Z,101065.94
2024-05-09T06:41:14.305Z,101067.59
2024-05-09T06:43:43.362Z,101073.14
2024-05-09T06:46:13.672Z,101069.63
2024-05-09T06:48:48.911Z,101067.80
2024-05-09T06:51:19.865Z,101080.13
2024-05-09T06:53:50.245Z,101069.23
2024-05-09T06:56:21.494Z,101068.43
2024-05-09T06:58:54.030Z,101073.77
2024-05-09T07:01:24.516Z,101072.75
2024-05-09T07:03:54.862Z,101070.88
2024-05-09T07:06:35.897Z,101069.89
2024-05-09T07:09:11.468Z,101079.37
2024-05-09T07:11:43.257Z,101071.14
2024-05-09T07:14:13.878Z,101068.29
2024-05-09T07:16:44.197Z,101073.02
2024-05-09T07:19:16.757Z,101067.28
2024-05-09T07:21:47.146Z,101055.56
2024-05-09T07:24:17.328Z,101057.84
2024-05-09T07:26:47.849Z,101059.30
2024-05-09T07:29:19.679Z,101060.73
2024-05-09T07:31:51.298Z,101060.55
2024-05-09T07:34:21.852Z,101064.46
2024-05-09T07:36:52.091Z,101063.22
2024-05-09T07:39:22.709Z,101063.03
2024-05-09T07:41:53.237Z,101066.95
2024-05-09T07:44:25.979Z,101062.02
2024-05-09T07:48:14.007Z,101067.79
2024-05-09T07:51:32.585Z,101058.96
2024-05-09T07:53:34.195Z,101061.42
2024-05-09T07:55:32.021Z,101071.08
2024-05-09T07:58:02.722Z,101069.87
2024-05-09T08:00:33.690Z,101069.46
2024-05-09T08:03:07.205Z,101074.19
2024-05-09T08:05:40.407Z,101075.42
2024-05-09T08:08:11.037Z,101070.51
2024-05-09T08:10:42.124Z,101072.16
2024-05-09T08:13:12.676Z,101074.61
2024-05-09T08:15:51.071Z,101074.82
2024-05-09T08:18:21.806Z,101072.77
2024-05-09T08:20:53.930Z,101077.70
2024-05-09T08:23:24.400Z,101081.83
2024-05-09T08:25:56.918Z,101077.72
2024-05-09T08:28:27.377Z,101082.25
2024-05-09T08:31:04.141Z,101082.64
2024-05-09T08:33:37.559Z,101080.17
2024-05-09T08:36:08.790Z,101074.23
2024-05-09T08:38:42.059Z,101070.11
2024-05-09T08:41:15.563Z,101071.95
2024-05-09T08:43:47.877Z,101073.99
2024-05-09T08:46:18.594Z,101069.09
2024-05-09T08:48:53.021Z,101064.14
2024-05-09T08:51:24.029Z,101067.23
2024-05-09T08:53:54.859Z,101066.59
2024-05-09T08:56:28.584Z,101056.31
2024-05-09T08:59:01.591Z,101068.23
2024-05-09T09:01:33.892Z,101057.12
2024-05-09T09:04:06.043Z,101060.18
2024-05-09T09:06:37.723Z,101064.92
2024-05-09T09:09:10.045Z,101066.56
2024-05-09T09:11:40.164Z,101060.79
2024-05-09T09:14:10.382Z,101060.56
2024-05-09T09:16:40.503Z,101061.79
2024-05-09T09:19:14.237Z,101053.34
2024-05-09T09:21:46.341Z,101056.42
2024-05-09T09:24:17.413Z,101056.00
2024-05-09T09:26:48.723Z,101058.26
2024-05-09T09:29:21.844Z,101053.71
2024-05-09T09:32:00.162Z,101053.52
2024-05-09T09:34:31.166Z,101056.80
2024-05-09T09:37:06.064Z,101061.13
2024-05-09T09:39:38.263Z,101058.64
2024-05-09T09:42:11.220Z,101057.41
2024-05-09T09:44:47.829Z,101056.38
2024-05-09T09:47:23.289Z,101064.19
2024-05-09T09:49:55.692Z,101065.02
2024-05-09T09:52:27.371Z,101059.05
2024-05-09T09:54:58.661Z,101060.90
2024-05-09T09:57:33.095Z,101057.41
2024-05-09T10:00:09.376Z,101053.89
2024-05-09T10:02:44.352Z,101051.22
2024-05-09T10:05:15.996Z,101054.13
2024-05-09T10:07:47.621Z,101046.09
2024-05-09T10:10:31.512Z,101053.89
2024-05-09T10:13:05.283Z,101052.06
2024-05-09T10:15:45.910Z,101053.89
2024-05-09T10:18:17.330Z,101058.22
2024-05-09T10:20:51.191Z,101058.83
2024-05-09T10:23:27.258Z,101055.12
2024-05-09T10:26:01.102Z,101056.56
2024-05-09T10:28:32.802Z,101055.73
2024-05-09T10:31:09.064Z,101045.02
2024-05-09T10:33:50.239Z,101054.50
2024-05-09T10:36:30.165Z,101050.55
2024-05-09T10:39:01.304Z,101041.28
2024-05-09T10:41:33.386Z,101035.09
2024-05-09T10:44:02.571Z,101032.41
2024-05-09T10:46:32.836Z,101033.45
2024-05-09T10:49:07.060Z,101013.95
2024-05-09T10:51:39.574Z,101031.80
2024-05-09T10:54:09.933Z,101026.25
2024-05-09T10:56:41.338Z,101021.70
2024-05-09T10:59:15.106Z,101020.89
2024-05-09T11:01:45.690Z,101028.70
2024-05-09T11:04:17.256Z,101024.98
2024-05-09T11:06:48.729Z,101026.43
2024-05-09T11:09:19.552Z,101020.03
2024-05-09T11:11:51.442Z,101009.09
2024-05-09T11:14:32.504Z,101003.10
2024-05-09T11:17:07.160Z,101010.48
2024-05-09T11:19:39.918Z,101006.94
2024-05-09T11:22:21.767Z,101008.98
2024-05-09T11:24:55.371Z,101011.61
2024-05-09T11:27:25.780Z,101009.70
2024-05-09T11:29:58.890Z,101003.53
2024-05-09T11:32:32.111Z,101011.31
2024-05-09T11:35:02.439Z,101014.77
2024-05-09T11:37:34.680Z,101005.84
2024-05-09T11:40:13.843Z,101008.25
2024-05-09T11:42:53.240Z,101008.17
2024-05-09T11:45:23.937Z,101004.85
2024-05-09T11:47:56.366Z,101001.49
2024-05-09T11:50:33.048Z,101005.17
2024-05-09T11:53:06.612Z,101006.97
2024-05-09T11:55:37.647Z,100999.28
2024-05-09T11:58:08.725Z,101001.52
2024-05-09T12:00:39.112Z,100996.75
2024-05-09T12:03:09.881Z,100998.98
2024-05-09T12:05:40.461Z,100999.59
2024-05-09T12:08:12.552Z,100999.23
2024-05-09T12:10:43.035Z,100999.44
2024-05-09T12:13:13.757Z,100987.66
2024-05-09T12:15:44.830Z,100990.34
2024-05-09T12:18:18.710Z,100986.86
2024-05-09T12:20:49.044Z,100985.42
2024-05-09T12:23:22.240Z,100985.42
2024-05-09T12:25:55.505Z,100981.09
2024-05-09T12:28:26.465Z,100982.73
2024-05-09T12:30:57.308Z,100972.84
2024-05-09T12:33:31.156Z,100980.89
2024-05-09T12:36:02.488Z,100968.28
2024-05-09T12:38:32.738Z,100968.28
2024-05-09T12:41:03.378Z,100969.11
2024-05-09T12:43:33.798Z,100972.39
2024-05-09T12:46:05.383Z,100962.02
2024-05-09T12:48:35.854Z,100966.94
2024-05-09T12:51:07.116Z,100964.64
2024-05-09T12:53:38.334Z,100966.05
2024-05-09T12:56:09.629Z,100963.16
2024-05-09T12:58:40.332Z,100958.38
2024-05-09T13:01:10.625Z,100957.94
2024-05-09T13:03:41.037Z,100959.33
2024-05-09T13:06:11.883Z,100956.65
2024-05-09T13:08:42.503Z,100952.92
2024-05-09T13:11:13.026Z,100952.70
2024-05-09T13:13:43.271Z,100943.61
2024-05-09T13:16:13.975Z,100948.98
2024-05-09T13:18:44.634Z,100946.30
2024-05-09T13:21:14.881Z,100945.25
2024-05-09T13:23:45.087Z,100950.62
2024-05-09T13:26:15.951Z,100937.41
2024-05-09T13:28:46.562Z,100935.31
2024-05-09T13:31:16.940Z,100928.30
2024-05-09T13:33:47.336Z,100928.09
2024-05-09T13:36:18.146Z,100921.68
2024-05-09T13:38:48.804Z,100913.39
2024-05-09T13:41:19.375Z,100923.08
2024-05-09T13:43:49.335Z,100921.23
2024-05-09T13:46:22.296Z,100925.55
2024-05-09T13:48:53.555Z,100917.50
2024-05-09T13:51:23.705Z,100918.30
2024-05-09T13:53:56.326Z,100913.17
2024-05-09T13:56:27.919Z,100911.08
2024-05-09T13:58:58.121Z,100913.77
2024-05-09T14:01:28.348Z,100913.53
2024-05-09T14:03:59.741Z,100913.10
2024-05-09T14:06:30.947Z,100914.53
2024-05-09T14:09:04.187Z,100916.97
2024-05-09T14:11:34.632Z,100918.40
2024-05-09T14:14:05.705Z,100910.10
2024-05-09T14:16:36.824Z,100903.23
2024-05-09T14:19:09.506Z,100907.34
2024-05-09T14:21:39.745Z,100908.14
2024-05-09T14:24:09.986Z,100912.25
2024-05-09T14:26:41.003Z,100911.20
2024-05-09T14:29:11.125Z,100914.24
2024-05-09T14:31:43.025Z,100913.20
2024-05-09T14:34:15.788Z,100914.62
2024-05-09T14:36:46.446Z,100917.89
2024-05-09T14:39:17.189Z,100916.60
2024-05-09T14:41:49.263Z,100915.55
2024-05-09T14:44:19.422Z,100912.66
2024-05-09T14:46:49.935Z,100910.56
2024-05-09T14:49:22.725Z,100909.72
2024-05-09T14:51:53.383Z,100910.77
2024-05-09T14:54:24.002Z,100911.61
2024-05-09T14:56:54.732Z,100916.14
2024-05-09T14:59:25.045Z,100916.14
2024-05-09T15:01:55.210Z,100914.75
2024-05-09T15:04:29.973Z,100915.80
2024-05-09T15:07:01.970Z,100914.16
2024-05-09T15:09:35.071Z,100916.47
2024-05-09T15:12:08.797Z,100916.72
2024-05-09T15:14:42.859Z,100912.15
2024-05-09T15:17:13.092Z,100911.34
2024-05-09T15:19:45.076Z,100905.14
2024-05-09T15:22:15.906Z,100897.91
2024-05-09T15:24:48.078Z,100902.23
2024-05-09T15:27:18.361Z,100904.09
2024-05-09T15:29:48.493Z,100901.41
2024-05-09T15:32:18.716Z,100904.09
2024-05-09T15:34:49.344Z,100904.92
2024-05-09T15:37:20.260Z,100905.73
2024-05-09T15:39:50.963Z,100905.73
2024-05-09T15:42:21.420Z,100908.66
2024-05-09T15:44:55.459Z,100901.19
2024-05-09T15:47:27.169Z,100906.56
2024-05-09T15:49:56.471Z,100906.56
2024-05-09T15:52:27.170Z,100905.97
2024-05-09T15:54:58.098Z,100899.77
2024-05-09T15:57:28.692Z,100898.13
2024-05-09T15:59:59.614Z,100899.17
2024-05-09T16:02:33.122Z,100902.91
2024-05-09T16:05:06.756Z,100910.16
2024-05-09T16:07:37.109Z,100903.36
2024-05-09T16:10:11.189Z,100900.92
2024-05-09T16:12:45.047Z,100900.33
2024-05-09T16:15:16.238Z,100903.23
2024-05-09T16:17:46.806Z,100903.92
2024-05-09T16:20:29.039Z,100907.06
2024-05-09T16:23:08.301Z,100906.09
2024-05-09T16:25:37.800Z,100907.35
2024-05-09T16:28:10.575Z,100908.85
2024-05-09T16:30:41.916Z,100906.83
2024-05-09T16:33:12.735Z,100916.17
2024-05-09T16:35:43.412Z,100918.47
2024-05-09T16:38:13.928Z,100913.80
2024-05-09T16:40:45.163Z,100917.73
2024-05-09T16:43:16.581Z,100918.19
2024-05-09T16:45:47.215Z,100926.09
2024-05-09T16:48:17.968Z,100919.77
2024-05-09T16:50:50.413Z,100929.07
2024-05-09T16:53:21.981Z,100929.76
2024-05-09T16:55:52.809Z,100932.89
2024-05-09T16:58:23.653Z,100937.06
2024-05-09T17:00:54.654Z,100932.94
2024-05-09T17:03:26.374Z,100943.31
2024-05-09T17:05:57.055Z,100938.39
2024-05-09T17:08:27.454Z,100948.13
2024-05-09T17:10:58.470Z,100950.45
2024-05-09T17:13:29.250Z,100946.33
2024-05-09T17:15:59.732Z,100950.50
2024-05-09T17:18:30.036Z,100949.30
2024-05-09T17:21:00.549Z,100948.93
2024-05-09T17:23:34.329Z,100946.89
2024-05-09T17:26:05.859Z,100957.45
2024-05-09T17:28:37.015Z,100957.30
2024-05-09T17:31:07.669Z,100953.41
2024-05-09T17:33:42.087Z,100960.25
2024-05-09T17:36:12.422Z,100955.49
2024-05-09T17:38:42.739Z,100967.92
2024-05-09T17:41:13.800Z,100970.20
2024-05-09T17:43:46.397Z,100971.91
2024-05-09T17:46:16.589Z,100979.16
2024-05-09T17:48:46.875Z,100985.39
2024-05-09T17:51:17.401Z,100989.73
2024-05-09T17:53:47.915Z,100993.50
2024-05-09T17:56:18.779Z,100995.39
2024-05-09T17:58:49.263Z,101013.34
2024-05-09T18:01:22.942Z,101008.66
2024-05-09T18:03:53.357Z,101003.55
2024-05-09T18:06:23.991Z,101002.32
2024-05-09T18:08:55.888Z,101000.06
2024-05-09T18:11:26.169Z,101013.64
2024-05-09T18:14:01.805Z,101012.65
2024-05-09T18:16:39.543Z,101023.97
2024-05-09T18:19:10.525Z,101032.03
2024-05-09T18:21:41.447Z,101026.68
2024-05-09T18:24:14.361Z,101029.77
2024-05-09T18:26:44.623Z,101032.83
2024-05-09T18:29:18.527Z,101039.23
2024-05-09T18:31:52.299Z,101035.11
2024-05-09T18:34:23.905Z,101040.48
2024-05-09T18:36:54.284Z,101040.28
2024-05-09T18:39:25.636Z,101039.24
2024-05-09T18:41:56.591Z,101048.52
2024-05-09T18:44:27.595Z,101053.66
2024-05-09T18:46:59.279Z,101049.12
2024-05-09T18:49:30.360Z,101053.02
2024-05-09T18:52:00.769Z,101056.11
2024-05-09T18:54:31.083Z,101056.52
2024-05-09T18:57:02.318Z,101052.60
2024-05-09T18:59:32.984Z,101062.05
2024-05-09T19:02:04.018Z,101051.99
2024-05-09T19:04:37.573Z,101055.48
2024-05-09T19:07:11.619Z,101060.61
2024-05-09T19:09:42.336Z,101057.72
2024-05-09T19:12:16.362Z,101055.45
2024-05-09T19:14:48.846Z,101054.00
2024-05-09T19:17:19.398Z,101059.74
2024-05-09T19:19:53.494Z,101058.31
2024-05-09T19:22:24.485Z,101065.70
2024-05-09T19:24:57.590Z,101068.97
2024-05-09T19:27:30.150Z,101075.73
2024-05-09T19:30:00.894Z,101066.47
2024-05-09T19:32:31.684Z,101070.57
2024-05-09T19:35:02.162Z,101067.48
2024-05-09T19:37:37.755Z,101072.39
2024-05-09T19:40:18.123Z,101072.79
2024-05-09T19:43:00.188Z,101071.55
2024-05-09T19:45:32.397Z,101073.77
2024-05-09T19:48:06.760Z,101074.16
2024-05-09T19:50:42.861Z,101076.39
2024-05-09T19:53:16.579Z,101077.81
2024-05-09T19:55:47.647Z,101079.05
2024-05-09T19:58:28.431Z,101083.94
2024-05-09T20:01:00.998Z,101080.83
2024-05-09T20:03:49.663Z,101085.75
2024-05-09T20:06:24.608Z,101087.17
2024-05-09T20:08:57.691Z,101086.72
2024-05-09T20:11:43.291Z,101087.11
2024-05-09T20:14:25.321Z,101079.70
2024-05-09T20:16:57.644Z,101086.45
2024-05-09T20:19:30.501Z,101088.67
2024-05-09T20:22:08.559Z,101091.95
2024-05-09T20:25:01.151Z,101088.02
2024-05-09T20:27:40.921Z,101091.08
2024-05-09T20:30:31.269Z,101098.45
2024-05-09T20:33:13.866Z,101095.33
2024-05-09T20:36:02.885Z,101096.55
2024-05-09T20:38:45.352Z,101094.27
2024-05-09T20:41:36.943Z,101093.02
2024-05-09T20:44:20.433Z,101082.73
2024-05-09T20:46:59.271Z,101090.10
2024-05-09T20:49:53.229Z,101092.31
2024-05-09T20:52:34.011Z,101093.92
2024-05-09T20:55:19.071Z,101095.95
2024-05-09T20:58:09.830Z,101101.47
2024-05-09T21:00:45.925Z,101100.41
2024-05-09T21:03:21.413Z,101090.76
2024-05-09T21:06:03.299Z,101101.80
2024-05-09T21:08:35.911Z,101096.86
2024-05-09T21:11:14.917Z,101094.75
2024-05-09T21:13:46.923Z,101090.64
2024-05-09T21:16:18.677Z,101091.83
2024-05-09T21:18:50.610Z,101091.41
2024-05-09T21:21:21.993Z,101086.45
2024-05-09T21:23:53.756Z,101088.48
2024-05-09T21:26:25.402Z,101101.98
2024-05-09T21:28:57.518Z,101104.02
2024-05-09T21:31:30.000Z,101099.91
2024-05-09T21:34:04.445Z,101108.07
2024-05-09T21:36:40.220Z,101104.77
2024-05-09T21:39:20.078Z,101104.77
2024-05-09T21:41:55.165Z,101103.32
2024-05-09T21:44:25.879Z,101109.46
2024-05-09T21:47:00.966Z,101105.34
2024-05-09T21:49:33.080Z,101100.16
2024-05-09T21:52:15.889Z,101095.67
2024-05-09T21:54:48.368Z,101099.36
2024-05-09T21:57:19.729Z,101088.70
2024-05-09T21:59:54.923Z,101097.70
2024-05-09T22:02:26.199Z,101094.84
2024-05-09T22:04:56.955Z,101092.38
2024-05-09T22:07:27.571Z,101098.72
2024-05-09T22:09:59.090Z,101094.41
2024-05-09T22:12:31.651Z,101098.08
2024-05-09T22:15:02.076Z,101101.76
2024-05-09T22:17:33.241Z,101099.27
2024-05-09T22:20:11.905Z,101094.95
2024-05-09T22:22:49.020Z,101091.48
2024-05-09T22:25:19.213Z,101088.98
2024-05-09T22:27:51.437Z,101092.67
2024-05-09T22:30:31.163Z,101084.88
2024-05-09T22:33:06.991Z,101086.91
2024-05-09T22:35:40.023Z,101084.41
2024-05-09T22:38:14.276Z,101092.61
2024-05-09T22:40:48.449Z,101091.13
2024-05-09T22:43:24.104Z,101095.01
2024-05-09T22:45:56.428Z,101098.69
2024-05-09T22:48:29.257Z,101098.86
2024-05-09T22:50:59.821Z,101090.23
2024-05-09T22:53:30.119Z,101091.24
2024-05-09T22:56:01.230Z,101093.27
2024-05-09T22:58:31.645Z,101091.98
2024-05-09T23:01:02.639Z,101089.70
2024-05-09T23:03:34.268Z,101083.73
2024-05-09T23:06:09.612Z,101087.61
2024-05-09T23:08:41.090Z,101084.48
2024-05-09T23:11:11.733Z,101079.53
2024-05-09T23:13:42.448Z,101084.41
2024-05-09T23:16:13.774Z,101090.11
2024-05-09T23:18:44.116Z,101094.79
2024-05-09T23:21:15.034Z,101089.00
2024-05-09T23:23:45.910Z,101085.89
2024-05-09T23:26:17.524Z,101085.42
2024-05-09T23:28:47.972Z,101085.63
2024-05-09T23:31:18.709Z,101085.98
2024-05-09T23:33:49.600Z,101088.02
2024-05-09T23:36:21.147Z,101076.73
2024-05-09T23:38:52.212Z,101079.75
2024-05-09T23:41:23.154Z,101081.58
2024-05-09T23:43:56.108Z,101083.59
2024-05-09T23:46:28.341Z,101074.16
2024-05-09T23:48:58.647Z,101073.32
2024-05-09T23:51:29.151Z,101071.86
2024-05-09T23:54:02.385Z,101078.20
2024-05-09T23:56:33.582Z,101076.71
2024-05-09T23:59:04.452Z,101066.63
